CIM weather

Cimitarra Airport
Cimitarra, Santander Department, Colombia

Public forecast

Using degrees Celsius for public forecast. Weather courtesy of forecast.io.

Closest aviation weather report (METAR) to Cimitarra Airport

Report is more than 6 hours old.

Closest report is YariguĂ­es Airport, 40.6 nm (75.2 km) NNE. Retrieved 2020/02/20 23:00 UTC (11 hours ago):

SKEJ 202300Z VRB02KT 9999 FEW025 SCT200 33/23 A2966

Closest aviation forecast (TAF) to Cimitarra Airport

Closest forecast is Palonegro Airport, 65.2 nm (120.8 km) NE. Retrieved 2020/02/21 06:36 UTC (3 hours ago):

TAF TAF SKBG 210430Z 2106/2206 32005KT 9999 SCT015 SCT080 TEMPO 2117/2121 34010KT TX29/2118Z TN19/2111Z